Terminal Aerodrome Forecast
Issued by NWS Wilmington, NC

Home | Current Version | Previous Version | Text Only | Print | Product List | Glossary On
Versions: 1 2 3 4 5 6 7 8 9 10 11 12 13 14 15 16 17
407
FTUS42 KILM 251720
TAFLBT
TAF
KLBT 251720Z 2518/2618 32004KT P6SM BKN035 PROB30 2605/2607 4SM
      -TSRA BKN045CB
     FM261200 02006KT P6SM SCT050=

USA.gov is the U.S. government's official web portal to all federal, state and local government web resources and services.